createdAt,value
2022-10-03T00:00:09.391Z,100.00
2022-10-03T00:02:58.286Z,100.00
2022-10-03T00:05:43.217Z,100.00
2022-10-03T00:08:21.721Z,100.00
2022-10-03T00:11:04.071Z,100.00
2022-10-03T00:13:43.329Z,100.00
2022-10-03T00:16:20.088Z,100.00
2022-10-03T00:19:00.256Z,100.00
2022-10-03T00:21:41.187Z,100.00
2022-10-03T00:24:24.949Z,100.00
2022-10-03T00:26:57.619Z,100.00
2022-10-03T00:29:43.271Z,100.00
2022-10-03T00:32:35.780Z,100.00
2022-10-03T00:35:21.933Z,100.00
2022-10-03T00:38:05.925Z,100.00
2022-10-03T00:41:15.900Z,100.00
2022-10-03T00:44:30.027Z,100.00
2022-10-03T00:47:29.621Z,100.00
2022-10-03T00:50:24.069Z,100.00
2022-10-03T00:53:10.943Z,100.00
2022-10-03T00:55:56.948Z,100.00
2022-10-03T00:58:39.871Z,100.00
2022-10-03T01:01:24.792Z,100.00
2022-10-03T01:04:03.741Z,100.00
2022-10-03T01:06:42.291Z,100.00
2022-10-03T01:09:34.987Z,100.00
2022-10-03T01:12:29.788Z,100.00
2022-10-03T01:15:11.492Z,100.00
2022-10-03T01:17:51.535Z,100.00
2022-10-03T01:20:31.955Z,100.00
2022-10-03T01:23:46.908Z,100.00
2022-10-03T01:26:34.166Z,100.00
2022-10-03T01:29:25.317Z,100.00
2022-10-03T01:32:00.527Z,100.00
2022-10-03T01:34:35.559Z,100.00
2022-10-03T01:37:11.582Z,100.00
2022-10-03T01:39:48.836Z,100.00
2022-10-03T01:42:21.595Z,100.00
2022-10-03T01:45:10.380Z,100.00
2022-10-03T01:47:47.472Z,100.00
2022-10-03T01:50:25.493Z,100.00
2022-10-03T01:52:59.953Z,100.00
2022-10-03T01:55:36.573Z,100.00
2022-10-03T01:58:09.670Z,100.00
2022-10-03T02:00:48.530Z,100.00
2022-10-03T02:03:24.002Z,100.00
2022-10-03T02:05:59.421Z,100.00
2022-10-03T02:08:36.563Z,100.00
2022-10-03T02:11:08.374Z,100.00
2022-10-03T02:13:44.304Z,100.00
2022-10-03T02:16:22.796Z,100.00
2022-10-03T02:18:54.864Z,100.00
2022-10-03T02:21:25.082Z,100.00
2022-10-03T02:24:10.141Z,100.00
2022-10-03T02:27:21.018Z,100.00
2022-10-03T02:30:15.500Z,100.00
2022-10-03T02:33:22.273Z,100.00
2022-10-03T02:36:32.390Z,100.00
2022-10-03T02:39:18.953Z,100.00
2022-10-03T02:42:27.916Z,100.00
2022-10-03T02:45:40.716Z,100.00
2022-10-03T02:48:49.796Z,100.00
2022-10-03T02:52:00.620Z,100.00
2022-10-03T02:55:00.165Z,100.00
2022-10-03T02:58:02.200Z,100.00
2022-10-03T03:00:42.763Z,100.00
2022-10-03T03:03:48.344Z,100.00
2022-10-03T03:06:34.478Z,100.00
2022-10-03T03:09:38.139Z,100.00
2022-10-03T03:12:41.199Z,100.00
2022-10-03T03:16:05.443Z,100.00
2022-10-03T03:18:38.167Z,100.00
2022-10-03T03:21:22.303Z,100.00
2022-10-03T03:24:22.113Z,100.00
2022-10-03T03:27:04.210Z,100.00
2022-10-03T03:29:43.964Z,100.00
2022-10-03T03:32:21.451Z,100.00
2022-10-03T03:35:00.515Z,100.00
2022-10-03T03:37:36.020Z,100.00
2022-10-03T03:40:20.892Z,100.00
2022-10-03T03:43:14.613Z,100.00
2022-10-03T03:45:51.576Z,100.00
2022-10-03T03:48:38.436Z,100.00
2022-10-03T03:51:23.130Z,100.00
2022-10-03T03:54:28.674Z,100.00
2022-10-03T03:57:16.743Z,100.00
2022-10-03T04:00:07.120Z,100.00
2022-10-03T04:03:16.559Z,100.00
2022-10-03T04:06:04.052Z,100.00
2022-10-03T04:08:48.302Z,100.00
2022-10-03T04:11:31.747Z,100.00
2022-10-03T04:14:15.739Z,100.00
2022-10-03T04:17:23.647Z,100.00
2022-10-03T04:20:05.618Z,100.00
2022-10-03T04:22:50.508Z,100.00
2022-10-03T04:25:32.149Z,100.00
2022-10-03T04:28:18.905Z,100.00
2022-10-03T04:31:02.521Z,100.00
2022-10-03T04:33:44.306Z,100.00
2022-10-03T04:36:43.867Z,100.00
2022-10-03T04:39:24.627Z,100.00
2022-10-03T04:42:00.017Z,100.00
2022-10-03T04:44:42.201Z,100.00
2022-10-03T04:47:32.176Z,100.00
2022-10-03T04:50:13.543Z,100.00
2022-10-03T04:53:01.209Z,100.00
2022-10-03T04:55:59.749Z,100.00
2022-10-03T04:59:17.434Z,100.00
2022-10-03T05:02:27.037Z,100.00
2022-10-03T05:05:16.376Z,100.00
2022-10-03T05:07:53.367Z,100.00
2022-10-03T05:10:35.891Z,100.00
2022-10-03T05:13:11.679Z,100.00
2022-10-03T05:15:48.574Z,100.00
2022-10-03T05:18:26.818Z,100.00
2022-10-03T05:20:59.085Z,100.00
2022-10-03T05:23:45.053Z,100.00
2022-10-03T05:26:44.066Z,100.00
2022-10-03T05:29:20.694Z,100.00
2022-10-03T05:31:57.230Z,100.00
2022-10-03T05:34:36.539Z,100.00
2022-10-03T05:37:28.918Z,100.00
2022-10-03T05:40:00.014Z,100.00
2022-10-03T05:42:43.603Z,100.00
2022-10-03T05:45:26.142Z,100.00
2022-10-03T05:48:08.833Z,100.00
2022-10-03T05:50:58.369Z,100.00
2022-10-03T05:53:53.077Z,100.00
2022-10-03T05:56:40.770Z,100.00
2022-10-03T05:59:37.299Z,100.00
2022-10-03T06:02:49.843Z,100.00
2022-10-03T06:05:30.597Z,100.00
2022-10-03T06:08:35.365Z,100.00
2022-10-03T06:11:20.941Z,100.00
2022-10-03T06:14:17.301Z,100.00
2022-10-03T06:16:56.840Z,100.00
2022-10-03T06:19:40.325Z,100.00
2022-10-03T06:22:43.238Z,100.00
2022-10-03T06:25:47.284Z,100.00
2022-10-03T06:28:52.096Z,100.00
2022-10-03T06:31:57.500Z,100.00
2022-10-03T06:34:51.705Z,100.00
2022-10-03T06:37:50.200Z,100.00
2022-10-03T06:40:54.038Z,100.00
2022-10-03T06:43:57.197Z,100.00
2022-10-03T06:46:57.095Z,100.00
2022-10-03T06:49:37.134Z,100.00
2022-10-03T06:52:39.380Z,100.00
2022-10-03T06:55:44.769Z,100.00
2022-10-03T06:59:05.568Z,100.00
2022-10-03T07:02:06.611Z,100.00
2022-10-03T07:05:20.532Z,100.00
2022-10-03T07:08:25.803Z,100.00
2022-10-03T07:11:08.554Z,100.00
2022-10-03T07:14:16.276Z,100.00
2022-10-03T07:17:11.535Z,100.00
2022-10-03T07:20:01.099Z,100.00
2022-10-03T07:23:14.587Z,100.00
2022-10-03T07:26:15.738Z,100.00
2022-10-03T07:29:06.853Z,100.00
2022-10-03T07:31:45.873Z,100.00
2022-10-03T07:34:52.987Z,100.00
2022-10-03T07:37:49.719Z,100.00
2022-10-03T07:40:41.302Z,100.00
2022-10-03T07:43:40.238Z,100.00
2022-10-03T07:46:37.253Z,100.00
2022-10-03T07:49:32.173Z,100.00
2022-10-03T07:52:29.995Z,100.00
2022-10-03T07:55:24.182Z,100.00
2022-10-03T07:58:29.804Z,100.00
2022-10-03T08:01:25.915Z,100.00
2022-10-03T08:04:23.795Z,100.00
2022-10-03T08:07:05.520Z,100.00
2022-10-03T08:09:59.796Z,100.00
2022-10-03T08:13:07.981Z,100.00
2022-10-03T08:15:53.229Z,100.00
2022-10-03T08:19:02.104Z,100.00
2022-10-03T08:21:39.255Z,100.00
2022-10-03T08:24:22.296Z,100.00
2022-10-03T08:27:10.151Z,100.00
2022-10-03T08:30:04.905Z,100.00
2022-10-03T08:33:01.441Z,100.00
2022-10-03T08:36:07.916Z,100.00
2022-10-03T08:39:12.765Z,100.00
2022-10-03T08:42:27.980Z,100.00
2022-10-03T08:45:27.849Z,100.00
2022-10-03T08:48:34.445Z,100.00
2022-10-03T08:51:19.693Z,100.00
2022-10-03T08:54:17.232Z,100.00
2022-10-03T08:56:57.853Z,100.00
2022-10-03T09:00:08.060Z,100.00
2022-10-03T09:03:32.616Z,100.00
2022-10-03T09:06:33.235Z,100.00
2022-10-03T09:09:12.856Z,100.00
2022-10-03T09:12:13.200Z,100.00
2022-10-03T09:15:03.193Z,100.00
2022-10-03T09:18:06.922Z,100.00
2022-10-03T09:21:07.051Z,100.00
2022-10-03T09:24:01.539Z,100.00
2022-10-03T09:27:04.549Z,100.00
2022-10-03T09:30:10.770Z,100.00
2022-10-03T09:33:23.734Z,100.00
2022-10-03T09:36:28.285Z,100.00
2022-10-03T09:39:50.166Z,100.00
2022-10-03T09:42:44.096Z,100.00
2022-10-03T09:45:22.777Z,100.00
2022-10-03T09:48:13.956Z,100.00
2022-10-03T09:51:07.298Z,100.00
2022-10-03T09:54:03.786Z,100.00
2022-10-03T09:56:58.551Z,100.00
2022-10-03T09:59:51.793Z,100.00
2022-10-03T10:02:47.014Z,100.00
2022-10-03T10:05:46.346Z,100.00
2022-10-03T10:08:48.561Z,99.45
2022-10-03T10:11:35.182Z,100.00
2022-10-03T10:14:24.923Z,100.00
2022-10-03T10:17:30.166Z,100.00
2022-10-03T10:20:12.724Z,100.00
2022-10-03T10:23:15.896Z,98.84
2022-10-03T10:26:29.547Z,96.09
2022-10-03T10:29:18.067Z,95.32
2022-10-03T10:32:23.286Z,95.95
2022-10-03T10:35:32.539Z,93.84
2022-10-03T10:38:39.303Z,94.42
2022-10-03T10:42:00.369Z,93.08
2022-10-03T10:45:04.291Z,93.88
2022-10-03T10:48:11.526Z,90.91
2022-10-03T10:51:27.747Z,92.22
2022-10-03T10:54:24.979Z,88.14
2022-10-03T10:57:22.602Z,88.32
2022-10-03T11:00:22.648Z,88.84
2022-10-03T11:03:44.182Z,86.61
2022-10-03T11:06:43.801Z,86.75
2022-10-03T11:09:31.828Z,85.79
2022-10-03T11:12:41.147Z,87.72
2022-10-03T11:15:37.470Z,86.24
2022-10-03T11:18:34.853Z,88.18
2022-10-03T11:21:33.725Z,92.10
2022-10-03T11:24:20.287Z,94.79
2022-10-03T11:27:28.061Z,93.99
2022-10-03T11:30:23.011Z,92.02
2022-10-03T11:33:42.656Z,90.99
2022-10-03T11:36:50.159Z,88.67
2022-10-03T11:39:28.649Z,88.94
2022-10-03T11:42:05.527Z,90.84
2022-10-03T11:44:36.178Z,91.90
2022-10-03T11:47:20.284Z,90.31
2022-10-03T11:50:11.295Z,86.77
2022-10-03T11:52:49.744Z,83.83
2022-10-03T11:55:31.622Z,84.14
2022-10-03T11:58:16.361Z,84.61
2022-10-03T12:00:48.183Z,85.26
2022-10-03T12:03:26.927Z,81.66
2022-10-03T12:06:21.509Z,83.32
2022-10-03T12:09:01.319Z,80.06
2022-10-03T12:11:35.305Z,79.05
2022-10-03T12:14:25.606Z,75.39
2022-10-03T12:17:06.911Z,73.23
2022-10-03T12:19:39.736Z,72.63
2022-10-03T12:22:24.475Z,71.60
2022-10-03T12:24:58.990Z,70.82
2022-10-03T12:27:44.344Z,70.06
2022-10-03T12:30:16.980Z,69.27
2022-10-03T12:32:59.890Z,66.84
2022-10-03T12:35:42.431Z,66.52
2022-10-03T12:38:28.363Z,64.80
2022-10-03T12:41:06.928Z,65.32
2022-10-03T12:43:50.292Z,64.26
2022-10-03T12:46:28.036Z,63.89
2022-10-03T12:49:03.424Z,65.20
2022-10-03T12:51:48.890Z,64.90
2022-10-03T12:54:41.055Z,65.74
2022-10-03T12:57:36.333Z,64.46
2022-10-03T13:00:08.760Z,64.69
2022-10-03T13:02:41.568Z,64.39
2022-10-03T13:05:30.499Z,64.29
2022-10-03T13:08:06.780Z,62.18
2022-10-03T13:10:41.900Z,64.07
2022-10-03T13:13:30.170Z,65.89
2022-10-03T13:16:18.469Z,66.88
2022-10-03T13:18:52.838Z,67.70
2022-10-03T13:21:45.051Z,69.04
2022-10-03T13:24:22.682Z,70.86
2022-10-03T13:26:59.814Z,70.41
2022-10-03T13:29:31.913Z,69.21
2022-10-03T13:32:16.222Z,69.03
2022-10-03T13:35:33.074Z,67.05
2022-10-03T13:38:26.476Z,65.40
2022-10-03T13:41:03.340Z,65.03
2022-10-03T13:43:37.838Z,64.60
2022-10-03T13:46:14.229Z,65.35
2022-10-03T13:48:50.139Z,64.74
2022-10-03T13:51:30.260Z,65.36
2022-10-03T13:54:03.821Z,66.09
2022-10-03T13:56:46.129Z,67.06
2022-10-03T13:59:32.603Z,67.08
2022-10-03T14:02:16.676Z,67.80
2022-10-03T14:05:07.426Z,67.33
2022-10-03T14:07:46.984Z,67.28
2022-10-03T14:10:27.204Z,67.55
2022-10-03T14:13:10.728Z,67.11
2022-10-03T14:15:48.417Z,65.93
2022-10-03T14:18:37.359Z,66.23
2022-10-03T14:21:46.957Z,66.42
2022-10-03T14:24:27.394Z,65.95
2022-10-03T14:27:02.890Z,66.34
2022-10-03T14:29:39.734Z,65.97
2022-10-03T14:32:45.734Z,64.88
2022-10-03T14:35:17.563Z,63.78
2022-10-03T14:37:53.620Z,63.77
2022-10-03T14:40:28.372Z,64.53
2022-10-03T14:43:06.928Z,65.11
2022-10-03T14:45:42.299Z,65.85
2022-10-03T14:48:18.209Z,66.84
2022-10-03T14:50:49.370Z,67.78
2022-10-03T14:53:21.444Z,68.97
2022-10-03T14:56:00.420Z,69.48
2022-10-03T14:58:32.683Z,71.07
2022-10-03T15:01:10.761Z,72.81
2022-10-03T15:03:41.379Z,73.60
2022-10-03T15:06:34.332Z,74.65
2022-10-03T15:09:09.796Z,75.52
2022-10-03T15:11:48.055Z,76.05
2022-10-03T15:14:16.364Z,76.90
2022-10-03T15:16:48.558Z,76.87
2022-10-03T15:19:19.839Z,76.68
2022-10-03T15:21:49.955Z,76.75
2022-10-03T15:24:25.571Z,77.50
2022-10-03T15:27:02.599Z,78.06
2022-10-03T15:29:32.328Z,78.45
2022-10-03T15:32:01.113Z,78.63
2022-10-03T15:34:33.135Z,79.14
2022-10-03T15:37:08.077Z,79.22
2022-10-03T15:39:42.039Z,80.14
2022-10-03T15:42:22.972Z,80.51
2022-10-03T15:44:54.495Z,81.80
2022-10-03T15:47:24.600Z,82.58
2022-10-03T15:49:57.116Z,82.94
2022-10-03T15:52:32.595Z,83.43
2022-10-03T15:55:12.640Z,83.19
2022-10-03T15:57:46.359Z,82.91
2022-10-03T16:00:24.699Z,83.91
2022-10-03T16:02:59.862Z,84.95
2022-10-03T16:05:28.787Z,84.83
2022-10-03T16:08:02.583Z,85.38
2022-10-03T16:10:37.904Z,85.93
2022-10-03T16:13:26.612Z,85.92
2022-10-03T16:16:09.131Z,86.38
2022-10-03T16:19:07.961Z,86.62
2022-10-03T16:21:46.609Z,86.49
2022-10-03T16:24:24.956Z,86.12
2022-10-03T16:26:57.991Z,86.06
2022-10-03T16:29:32.594Z,85.54
2022-10-03T16:32:06.135Z,85.96
2022-10-03T16:34:37.161Z,86.47
2022-10-03T16:37:16.287Z,86.91
2022-10-03T16:39:51.701Z,86.81
2022-10-03T16:42:26.478Z,86.52
2022-10-03T16:44:58.250Z,88.04
2022-10-03T16:47:37.092Z,87.93
2022-10-03T16:50:25.279Z,87.95
2022-10-03T16:52:58.711Z,88.23
2022-10-03T16:55:32.406Z,89.15
2022-10-03T16:58:12.379Z,89.33
2022-10-03T17:01:03.926Z,90.05
2022-10-03T17:03:45.168Z,89.85
2022-10-03T17:06:22.240Z,89.74
2022-10-03T17:08:53.352Z,89.56
2022-10-03T17:11:26.252Z,88.66
2022-10-03T17:13:59.304Z,89.07
2022-10-03T17:16:37.451Z,88.63
2022-10-03T17:19:22.160Z,89.48
2022-10-03T17:21:54.919Z,89.05
2022-10-03T17:24:34.341Z,89.09
2022-10-03T17:27:09.467Z,89.33
2022-10-03T17:29:47.973Z,89.47
2022-10-03T17:32:22.646Z,90.36
2022-10-03T17:34:55.787Z,90.99
2022-10-03T17:37:47.296Z,91.17
2022-10-03T17:40:23.414Z,91.48
2022-10-03T17:42:57.487Z,92.00
2022-10-03T17:45:34.478Z,92.30
2022-10-03T17:48:13.046Z,93.85
2022-10-03T17:50:54.432Z,93.23
2022-10-03T17:53:27.344Z,93.92
2022-10-03T17:55:58.245Z,93.99
2022-10-03T17:58:29.709Z,94.47
2022-10-03T18:01:07.344Z,93.86
2022-10-03T18:03:42.152Z,93.69
2022-10-03T18:06:44.322Z,94.43
2022-10-03T18:09:32.568Z,94.66
2022-10-03T18:12:16.396Z,95.00
2022-10-03T18:15:05.436Z,96.10
2022-10-03T18:17:46.445Z,96.37
2022-10-03T18:20:33.219Z,96.80
2022-10-03T18:23:08.520Z,95.53
2022-10-03T18:26:20.725Z,95.38
2022-10-03T18:28:58.768Z,96.83
2022-10-03T18:31:31.032Z,95.66
2022-10-03T18:34:03.924Z,95.84
2022-10-03T18:36:35.864Z,95.35
2022-10-03T18:39:11.731Z,93.77
2022-10-03T18:41:46.600Z,92.79
2022-10-03T18:44:18.089Z,93.36
2022-10-03T18:46:50.671Z,92.76
2022-10-03T18:49:34.349Z,92.55
2022-10-03T18:52:10.721Z,92.46
2022-10-03T18:54:50.796Z,92.87
2022-10-03T18:57:24.293Z,92.05
2022-10-03T18:59:57.506Z,91.96
2022-10-03T19:02:35.086Z,91.63
2022-10-03T19:05:13.149Z,92.29
2022-10-03T19:07:49.402Z,92.51
2022-10-03T19:10:37.816Z,92.62
2022-10-03T19:13:16.331Z,93.46
2022-10-03T19:16:31.867Z,94.34
2022-10-03T19:19:08.856Z,94.97
2022-10-03T19:21:41.207Z,94.62
2022-10-03T19:24:14.863Z,95.33
2022-10-03T19:26:47.308Z,94.70
2022-10-03T19:29:20.444Z,95.87
2022-10-03T19:31:58.767Z,96.20
2022-10-03T19:34:35.147Z,95.69
2022-10-03T19:37:09.203Z,95.67
2022-10-03T19:39:39.685Z,95.30
2022-10-03T19:42:25.366Z,94.91
2022-10-03T19:44:57.172Z,94.96
2022-10-03T19:47:31.684Z,93.92
2022-10-03T19:50:08.582Z,94.39
2022-10-03T19:52:41.726Z,94.57
2022-10-03T19:55:16.020Z,94.30
2022-10-03T19:57:48.883Z,94.26
2022-10-03T20:00:27.019Z,94.41
2022-10-03T20:02:58.067Z,94.58
2022-10-03T20:05:32.939Z,95.14
2022-10-03T20:08:11.584Z,96.00
2022-10-03T20:10:57.557Z,95.99
2022-10-03T20:13:25.495Z,96.01
2022-10-03T20:15:56.993Z,96.76
2022-10-03T20:18:27.709Z,97.17
2022-10-03T20:20:57.749Z,96.96
2022-10-03T20:23:30.170Z,97.97
2022-10-03T20:26:03.925Z,97.55
2022-10-03T20:28:46.921Z,97.71
2022-10-03T20:31:22.781Z,97.09
2022-10-03T20:33:52.032Z,97.18
2022-10-03T20:36:24.141Z,97.77
2022-10-03T20:39:05.939Z,97.61
2022-10-03T20:41:41.855Z,98.11
2022-10-03T20:44:17.876Z,98.85
2022-10-03T20:46:49.141Z,98.99
2022-10-03T20:49:28.092Z,99.68
2022-10-03T20:52:01.822Z,99.84
2022-10-03T20:54:37.019Z,100.00
2022-10-03T20:57:13.802Z,100.00
2022-10-03T20:59:47.431Z,100.00
2022-10-03T21:02:23.598Z,100.00
2022-10-03T21:04:56.152Z,100.00
2022-10-03T21:07:32.594Z,100.00
2022-10-03T21:10:09.313Z,100.00
2022-10-03T21:12:43.284Z,100.00
2022-10-03T21:15:18.759Z,100.00
2022-10-03T21:17:47.689Z,100.00
2022-10-03T21:20:20.041Z,100.00
2022-10-03T21:22:51.588Z,100.00
2022-10-03T21:25:26.923Z,100.00
2022-10-03T21:27:57.291Z,100.00
2022-10-03T21:30:46.483Z,100.00
2022-10-03T21:33:20.930Z,100.00
2022-10-03T21:35:51.416Z,100.00
2022-10-03T21:38:26.796Z,100.00
2022-10-03T21:41:24.329Z,100.00
2022-10-03T21:43:55.593Z,100.00
2022-10-03T21:46:35.593Z,100.00
2022-10-03T21:49:23.174Z,100.00
2022-10-03T21:52:26.686Z,100.00
2022-10-03T21:55:07.293Z,100.00
2022-10-03T21:57:48.386Z,100.00
2022-10-03T22:00:18.205Z,100.00
2022-10-03T22:02:58.197Z,100.00
2022-10-03T22:05:37.338Z,100.00
2022-10-03T22:08:15.207Z,100.00
2022-10-03T22:10:55.988Z,100.00
2022-10-03T22:13:29.956Z,100.00
2022-10-03T22:16:05.265Z,100.00
2022-10-03T22:18:43.153Z,100.00
2022-10-03T22:21:24.797Z,100.00
2022-10-03T22:24:00.555Z,100.00
2022-10-03T22:26:36.527Z,100.00
2022-10-03T22:29:13.405Z,100.00
2022-10-03T22:31:50.128Z,100.00
2022-10-03T22:34:32.851Z,100.00
2022-10-03T22:37:01.341Z,100.00
2022-10-03T22:39:30.644Z,100.00
2022-10-03T22:42:01.931Z,100.00
2022-10-03T22:44:33.562Z,100.00
2022-10-03T22:47:06.168Z,100.00
2022-10-03T22:49:38.262Z,100.00
2022-10-03T22:52:09.306Z,100.00
2022-10-03T22:54:40.606Z,100.00
2022-10-03T22:57:10.335Z,100.00
2022-10-03T22:59:46.517Z,100.00
2022-10-03T23:02:14.872Z,100.00
2022-10-03T23:04:48.671Z,100.00
2022-10-03T23:07:30.883Z,100.00
2022-10-03T23:10:09.877Z,100.00
2022-10-03T23:12:43.843Z,100.00
2022-10-03T23:15:17.673Z,100.00
2022-10-03T23:18:04.523Z,100.00
2022-10-03T23:21:00.659Z,100.00
2022-10-03T23:23:38.344Z,100.00
2022-10-03T23:26:41.748Z,100.00
2022-10-03T23:29:13.397Z,100.00
2022-10-03T23:32:02.207Z,100.00
2022-10-03T23:34:47.788Z,100.00
2022-10-03T23:37:38.585Z,100.00
2022-10-03T23:40:35.851Z,100.00
2022-10-03T23:43:24.307Z,100.00
2022-10-03T23:45:54.567Z,100.00
2022-10-03T23:48:26.664Z,100.00
2022-10-03T23:50:59.276Z,100.00
2022-10-03T23:53:32.898Z,100.00
2022-10-03T23:56:03.337Z,100.00
2022-10-03T23:58:34.250Z,100.00
